sensor_id;sensor_type;location;lat;lon;timestamp;pressure;altitude;pressure_sealevel;temperature;humidity
12775;BME280;6451;42.630;23.382;2023-11-21T00:00:58;94218.56;;;4.53;100.00
12775;BME280;6451;42.630;23.382;2023-11-21T00:03:29;94229.34;;;4.70;100.00
12775;BME280;6451;42.630;23.382;2023-11-21T00:05:56;94170.16;;;4.44;100.00
12775;BME280;6451;42.630;23.382;2023-11-21T00:08:23;94211.03;;;4.72;100.00
12775;BME280;6451;42.630;23.382;2023-11-21T00:10:52;94219.41;;;4.79;100.00
12775;BME280;6451;42.630;23.382;2023-11-21T00:13:20;94224.31;;;4.77;100.00
12775;BME280;6451;42.630;23.382;2023-11-21T00:15:48;94219.72;;;4.69;100.00
12775;BME280;6451;42.630;23.382;2023-11-21T00:18:15;94219.25;;;4.76;100.00
12775;BME280;6451;42.630;23.382;2023-11-21T00:20:43;94220.66;;;4.73;100.00
12775;BME280;6451;42.630;23.382;2023-11-21T00:23:12;94213.25;;;4.79;100.00
12775;BME280;6451;42.630;23.382;2023-11-21T00:25:39;94207.44;;;4.85;100.00
12775;BME280;6451;42.630;23.382;2023-11-21T00:28:06;94183.84;;;4.82;100.00
12775;BME280;6451;42.630;23.382;2023-11-21T00:30:33;94176.38;;;4.62;100.00
12775;BME280;6451;42.630;23.382;2023-11-21T00:33:05;94164.84;;;4.70;100.00
12775;BME280;6451;42.630;23.382;2023-11-21T00:35:34;94180.06;;;4.83;100.00
12775;BME280;6451;42.630;23.382;2023-11-21T00:38:03;94216.16;;;5.08;100.00
12775;BME280;6451;42.630;23.382;2023-11-21T00:40:30;94181.66;;;4.93;100.00
12775;BME280;6451;42.630;23.382;2023-11-21T00:42:57;94206.34;;;5.03;100.00
12775;BME280;6451;42.630;23.382;2023-11-21T00:45:24;94220.75;;;4.99;100.00
12775;BME280;6451;42.630;23.382;2023-11-21T00:47:51;94213.00;;;5.06;100.00
12775;BME280;6451;42.630;23.382;2023-11-21T00:50:21;94220.75;;;5.08;100.00
12775;BME280;6451;42.630;23.382;2023-11-21T00:52:48;94166.25;;;4.67;100.00
12775;BME280;6451;42.630;23.382;2023-11-21T00:55:18;94225.50;;;5.11;100.00
12775;BME280;6451;42.630;23.382;2023-11-21T00:57:46;94190.00;;;4.83;100.00
12775;BME280;6451;42.630;23.382;2023-11-21T01:00:14;94217.25;;;4.98;100.00
12775;BME280;6451;42.630;23.382;2023-11-21T01:03:07;93981.94;;;3.49;100.00
12775;BME280;6451;42.630;23.382;2023-11-21T01:05:39;94197.00;;;4.84;100.00
12775;BME280;6451;42.630;23.382;2023-11-21T01:08:09;94185.69;;;4.56;100.00
12775;BME280;6451;42.630;23.382;2023-11-21T01:10:37;94204.69;;;4.68;100.00
12775;BME280;6451;42.630;23.382;2023-11-21T01:13:04;94177.41;;;4.43;100.00
12775;BME280;6451;42.630;23.382;2023-11-21T01:15:32;94179.00;;;4.44;100.00
12775;BME280;6451;42.630;23.382;2023-11-21T01:18:00;94186.63;;;4.60;100.00
12775;BME280;6451;42.630;23.382;2023-11-21T01:20:27;94192.88;;;4.95;100.00
12775;BME280;6451;42.630;23.382;2023-11-21T01:22:55;94199.06;;;4.95;100.00
12775;BME280;6451;42.630;23.382;2023-11-21T01:25:22;94205.06;;;4.84;100.00
12775;BME280;6451;42.630;23.382;2023-11-21T01:27:49;94200.28;;;4.81;100.00
12775;BME280;6451;42.630;23.382;2023-11-21T01:30:16;94194.59;;;4.82;100.00
12775;BME280;6451;42.630;23.382;2023-11-21T01:32:43;94201.09;;;4.90;100.00
12775;BME280;6451;42.630;23.382;2023-11-21T01:35:13;94014.00;;;3.54;100.00
12775;BME280;6451;42.630;23.382;2023-11-21T01:37:40;94188.44;;;4.82;100.00
12775;BME280;6451;42.630;23.382;2023-11-21T01:40:09;94119.59;;;4.37;100.00
12775;BME280;6451;42.630;23.382;2023-11-21T01:42:39;94192.84;;;4.69;100.00
12775;BME280;6451;42.630;23.382;2023-11-21T01:45:07;94200.44;;;4.76;100.00
12775;BME280;6451;42.630;23.382;2023-11-21T01:47:37;94183.94;;;4.60;100.00
12775;BME280;6451;42.630;23.382;2023-11-21T01:50:06;94210.38;;;4.75;100.00
12775;BME280;6451;42.630;23.382;2023-11-21T01:52:36;94137.09;;;4.35;100.00
12775;BME280;6451;42.630;23.382;2023-11-21T01:55:05;94166.88;;;4.56;100.00
12775;BME280;6451;42.630;23.382;2023-11-21T01:57:35;94124.56;;;4.22;100.00
12775;BME280;6451;42.630;23.382;2023-11-21T02:00:05;94184.09;;;4.46;100.00
12775;BME280;6451;42.630;23.382;2023-11-21T02:02:42;94185.91;;;4.37;100.00
12775;BME280;6451;42.630;23.382;2023-11-21T02:05:09;94175.78;;;4.25;100.00
12775;BME280;6451;42.630;23.382;2023-11-21T02:07:38;94112.59;;;3.88;100.00
12775;BME280;6451;42.630;23.382;2023-11-21T02:10:06;94139.72;;;4.09;100.00
12775;BME280;6451;42.630;23.382;2023-11-21T02:12:36;94178.53;;;4.42;100.00
12775;BME280;6451;42.630;23.382;2023-11-21T02:15:13;94119.63;;;4.06;100.00
12775;BME280;6451;42.630;23.382;2023-11-21T02:17:42;94110.31;;;4.04;100.00
12775;BME280;6451;42.630;23.382;2023-11-21T02:20:10;94147.84;;;4.35;100.00
12775;BME280;6451;42.630;23.382;2023-11-21T02:22:41;94190.28;;;4.64;100.00
12775;BME280;6451;42.630;23.382;2023-11-21T02:25:10;94162.59;;;4.55;100.00
12775;BME280;6451;42.630;23.382;2023-11-21T02:27:38;94194.41;;;4.70;100.00
12775;BME280;6451;42.630;23.382;2023-11-21T02:30:06;94161.19;;;4.57;100.00
12775;BME280;6451;42.630;23.382;2023-11-21T02:32:37;94156.00;;;4.61;100.00
12775;BME280;6451;42.630;23.382;2023-11-21T02:35:06;94187.28;;;4.65;100.00
12775;BME280;6451;42.630;23.382;2023-11-21T02:37:33;94185.25;;;4.71;100.00
12775;BME280;6451;42.630;23.382;2023-11-21T02:40:02;94186.19;;;4.66;100.00
12775;BME280;6451;42.630;23.382;2023-11-21T02:42:32;94188.88;;;4.66;100.00
12775;BME280;6451;42.630;23.382;2023-11-21T02:45:02;94140.72;;;4.30;100.00
12775;BME280;6451;42.630;23.382;2023-11-21T02:47:29;94177.66;;;4.73;100.00
12775;BME280;6451;42.630;23.382;2023-11-21T02:49:56;94192.00;;;4.60;100.00
12775;BME280;6451;42.630;23.382;2023-11-21T02:52:23;94190.75;;;4.57;100.00
12775;BME280;6451;42.630;23.382;2023-11-21T02:54:50;94134.88;;;4.28;100.00
12775;BME280;6451;42.630;23.382;2023-11-21T02:57:17;94182.53;;;4.54;100.00
12775;BME280;6451;42.630;23.382;2023-11-21T02:59:45;94187.72;;;4.50;100.00
12775;BME280;6451;42.630;23.382;2023-11-21T03:02:12;94183.22;;;4.37;100.00
12775;BME280;6451;42.630;23.382;2023-11-21T03:04:39;94173.88;;;4.26;100.00
12775;BME280;6451;42.630;23.382;2023-11-21T03:07:07;94149.47;;;4.05;100.00
12775;BME280;6451;42.630;23.382;2023-11-21T03:09:35;94176.00;;;4.37;100.00
12775;BME280;6451;42.630;23.382;2023-11-21T03:12:03;94120.50;;;3.84;100.00
12775;BME280;6451;42.630;23.382;2023-11-21T03:14:30;94174.53;;;4.31;100.00
12775;BME280;6451;42.630;23.382;2023-11-21T03:16:58;94185.09;;;4.28;100.00
12775;BME280;6451;42.630;23.382;2023-11-21T03:19:25;94173.44;;;4.32;100.00
12775;BME280;6451;42.630;23.382;2023-11-21T03:21:52;94178.50;;;4.34;100.00
12775;BME280;6451;42.630;23.382;2023-11-21T03:24:20;94132.66;;;3.90;100.00
12775;BME280;6451;42.630;23.382;2023-11-21T03:26:49;94147.53;;;3.97;100.00
12775;BME280;6451;42.630;23.382;2023-11-21T03:29:17;94190.78;;;4.26;100.00
12775;BME280;6451;42.630;23.382;2023-11-21T03:31:44;94187.97;;;4.31;100.00
12775;BME280;6451;42.630;23.382;2023-11-21T03:34:15;94182.50;;;4.14;100.00
12775;BME280;6451;42.630;23.382;2023-11-21T03:36:43;94176.06;;;4.15;100.00
12775;BME280;6451;42.630;23.382;2023-11-21T03:39:12;94161.19;;;4.09;100.00
12775;BME280;6451;42.630;23.382;2023-11-21T03:41:38;94147.50;;;3.88;100.00
12775;BME280;6451;42.630;23.382;2023-11-21T03:44:05;94163.44;;;3.84;100.00
12775;BME280;6451;42.630;23.382;2023-11-21T03:46:32;94120.22;;;3.32;100.00
12775;BME280;6451;42.630;23.382;2023-11-21T03:49:04;94196.09;;;3.55;100.00
12775;BME280;6451;42.630;23.382;2023-11-21T03:51:41;94154.44;;;3.35;100.00
12775;BME280;6451;42.630;23.382;2023-11-21T03:54:09;94106.31;;;2.86;100.00
12775;BME280;6451;42.630;23.382;2023-11-21T03:56:36;94071.84;;;2.70;100.00
12775;BME280;6451;42.630;23.382;2023-11-21T03:59:03;94138.00;;;3.28;100.00
12775;BME280;6451;42.630;23.382;2023-11-21T04:01:31;94110.91;;;3.08;100.00
12775;BME280;6451;42.630;23.382;2023-11-21T04:04:02;94006.25;;;2.45;100.00
12775;BME280;6451;42.630;23.382;2023-11-21T04:06:29;94154.06;;;3.51;100.00
12775;BME280;6451;42.630;23.382;2023-11-21T04:08:59;94167.09;;;3.66;100.00
12775;BME280;6451;42.630;23.382;2023-11-21T04:11:26;94114.22;;;3.35;100.00
12775;BME280;6451;42.630;23.382;2023-11-21T04:13:56;94164.63;;;3.70;100.00
12775;BME280;6451;42.630;23.382;2023-11-21T04:16:39;94166.38;;;3.74;100.00
12775;BME280;6451;42.630;23.382;2023-11-21T04:19:15;94105.16;;;3.23;100.00
12775;BME280;6451;42.630;23.382;2023-11-21T04:21:42;94146.22;;;3.54;100.00
12775;BME280;6451;42.630;23.382;2023-11-21T04:24:11;94104.00;;;3.15;100.00
12775;BME280;6451;42.630;23.382;2023-11-21T04:26:38;94152.44;;;3.41;100.00
12775;BME280;6451;42.630;23.382;2023-11-21T04:29:12;94163.22;;;3.50;100.00
12775;BME280;6451;42.630;23.382;2023-11-21T04:31:39;94159.28;;;3.47;100.00
12775;BME280;6451;42.630;23.382;2023-11-21T04:34:07;94077.94;;;2.85;100.00
12775;BME280;6451;42.630;23.382;2023-11-21T04:36:34;94168.22;;;3.65;100.00
12775;BME280;6451;42.630;23.382;2023-11-21T04:39:01;94131.75;;;3.64;100.00
12775;BME280;6451;42.630;23.382;2023-11-21T04:41:30;94172.41;;;3.80;100.00
12775;BME280;6451;42.630;23.382;2023-11-21T04:43:58;94161.50;;;3.76;100.00
12775;BME280;6451;42.630;23.382;2023-11-21T04:46:26;94045.47;;;2.86;100.00
12775;BME280;6451;42.630;23.382;2023-11-21T04:48:53;94152.06;;;3.56;100.00
12775;BME280;6451;42.630;23.382;2023-11-21T04:51:20;94154.38;;;3.49;100.00
12775;BME280;6451;42.630;23.382;2023-11-21T04:53:46;94164.44;;;3.44;100.00
12775;BME280;6451;42.630;23.382;2023-11-21T04:56:14;94175.41;;;3.56;100.00
12775;BME280;6451;42.630;23.382;2023-11-21T04:58:42;94173.31;;;3.75;100.00
12775;BME280;6451;42.630;23.382;2023-11-21T05:01:09;94167.41;;;3.65;100.00
12775;BME280;6451;42.630;23.382;2023-11-21T05:03:37;94151.22;;;3.47;100.00
12775;BME280;6451;42.630;23.382;2023-11-21T05:06:05;94103.50;;;3.13;100.00
12775;BME280;6451;42.630;23.382;2023-11-21T05:08:36;94176.84;;;3.53;100.00
12775;BME280;6451;42.630;23.382;2023-11-21T05:11:08;94174.84;;;3.68;100.00
12775;BME280;6451;42.630;23.382;2023-11-21T05:13:36;94138.41;;;3.44;100.00
12775;BME280;6451;42.630;23.382;2023-11-21T05:16:14;94149.31;;;3.70;100.00
12775;BME280;6451;42.630;23.382;2023-11-21T05:18:43;94123.34;;;3.57;100.00
12775;BME280;6451;42.630;23.382;2023-11-21T05:21:10;94119.75;;;3.61;100.00
12775;BME280;6451;42.630;23.382;2023-11-21T05:23:37;94086.44;;;3.31;100.00
12775;BME280;6451;42.630;23.382;2023-11-21T05:26:13;94110.13;;;3.60;100.00
12775;BME280;6451;42.630;23.382;2023-11-21T05:28:40;94156.00;;;3.81;100.00
12775;BME280;6451;42.630;23.382;2023-11-21T05:31:09;94160.75;;;3.84;100.00
12775;BME280;6451;42.630;23.382;2023-11-21T05:33:47;94164.97;;;3.77;100.00
12775;BME280;6451;42.630;23.382;2023-11-21T05:36:17;94179.22;;;3.86;100.00
12775;BME280;6451;42.630;23.382;2023-11-21T05:38:44;94162.25;;;3.99;100.00
12775;BME280;6451;42.630;23.382;2023-11-21T05:41:15;94165.19;;;3.89;100.00
12775;BME280;6451;42.630;23.382;2023-11-21T05:43:46;94029.81;;;3.02;100.00
12775;BME280;6451;42.630;23.382;2023-11-21T05:46:18;94136.22;;;3.69;100.00
12775;BME280;6451;42.630;23.382;2023-11-21T05:48:51;94181.97;;;3.95;100.00
12775;BME280;6451;42.630;23.382;2023-11-21T05:51:43;94168.31;;;3.82;100.00
12775;BME280;6451;42.630;23.382;2023-11-21T05:54:11;94164.44;;;3.97;100.00
12775;BME280;6451;42.630;23.382;2023-11-21T05:56:40;94163.28;;;3.89;100.00
12775;BME280;6451;42.630;23.382;2023-11-21T05:59:07;94162.88;;;4.05;100.00
12775;BME280;6451;42.630;23.382;2023-11-21T06:01:48;94171.66;;;3.88;100.00
12775;BME280;6451;42.630;23.382;2023-11-21T06:04:19;94035.53;;;3.09;100.00
12775;BME280;6451;42.630;23.382;2023-11-21T06:06:50;94151.91;;;3.84;100.00
12775;BME280;6451;42.630;23.382;2023-11-21T06:09:18;94100.25;;;3.47;100.00
12775;BME280;6451;42.630;23.382;2023-11-21T06:11:45;94078.50;;;3.49;100.00
12775;BME280;6451;42.630;23.382;2023-11-21T06:14:15;94168.75;;;4.07;100.00
12775;BME280;6451;42.630;23.382;2023-11-21T06:16:45;94148.31;;;3.97;100.00
12775;BME280;6451;42.630;23.382;2023-11-21T06:19:12;94185.78;;;4.42;100.00
12775;BME280;6451;42.630;23.382;2023-11-21T06:21:40;94150.78;;;4.16;100.00
12775;BME280;6451;42.630;23.382;2023-11-21T06:24:07;94158.75;;;4.30;100.00
12775;BME280;6451;42.630;23.382;2023-11-21T06:26:34;94076.84;;;3.61;100.00
12775;BME280;6451;42.630;23.382;2023-11-21T06:29:01;94185.03;;;4.50;100.00
12775;BME280;6451;42.630;23.382;2023-11-21T06:31:35;94182.00;;;4.43;100.00
12775;BME280;6451;42.630;23.382;2023-11-21T06:34:03;94180.50;;;4.68;100.00
12775;BME280;6451;42.630;23.382;2023-11-21T06:36:31;94199.50;;;4.32;100.00
12775;BME280;6451;42.630;23.382;2023-11-21T06:38:59;94186.81;;;4.63;100.00
12775;BME280;6451;42.630;23.382;2023-11-21T06:41:26;94184.09;;;4.55;100.00
12775;BME280;6451;42.630;23.382;2023-11-21T06:43:53;94191.75;;;4.87;100.00
12775;BME280;6451;42.630;23.382;2023-11-21T06:46:20;94185.75;;;4.90;100.00
12775;BME280;6451;42.630;23.382;2023-11-21T06:48:48;94157.50;;;4.44;100.00
12775;BME280;6451;42.630;23.382;2023-11-21T06:51:16;94185.28;;;4.97;100.00
12775;BME280;6451;42.630;23.382;2023-11-21T06:53:44;94192.13;;;5.12;100.00
12775;BME280;6451;42.630;23.382;2023-11-21T06:56:15;94213.00;;;5.15;100.00
12775;BME280;6451;42.630;23.382;2023-11-21T06:58:43;94134.84;;;5.02;100.00
12775;BME280;6451;42.630;23.382;2023-11-21T07:01:13;94206.38;;;5.47;100.00
12775;BME280;6451;42.630;23.382;2023-11-21T07:03:41;94205.25;;;5.65;100.00
12775;BME280;6451;42.630;23.382;2023-11-21T07:06:10;94195.59;;;5.64;100.00
12775;BME280;6451;42.630;23.382;2023-11-21T07:08:39;94211.44;;;5.57;100.00
12775;BME280;6451;42.630;23.382;2023-11-21T07:11:10;94209.69;;;5.70;100.00
12775;BME280;6451;42.630;23.382;2023-11-21T07:13:40;94203.53;;;5.69;100.00
12775;BME280;6451;42.630;23.382;2023-11-21T07:16:15;94065.09;;;4.71;100.00
12775;BME280;6451;42.630;23.382;2023-11-21T07:18:46;94090.06;;;4.89;100.00
12775;BME280;6451;42.630;23.382;2023-11-21T07:21:14;94169.66;;;5.34;100.00
12775;BME280;6451;42.630;23.382;2023-11-21T07:23:43;94206.84;;;5.57;100.00
12775;BME280;6451;42.630;23.382;2023-11-21T07:26:10;94092.47;;;5.08;100.00
12775;BME280;6451;42.630;23.382;2023-11-21T07:28:37;94197.00;;;5.79;100.00
12775;BME280;6451;42.630;23.382;2023-11-21T07:31:05;94191.91;;;6.03;100.00
12775;BME280;6451;42.630;23.382;2023-11-21T07:33:42;94038.22;;;5.06;100.00
12775;BME280;6451;42.630;23.382;2023-11-21T07:36:22;94198.75;;;6.01;100.00
12775;BME280;6451;42.630;23.382;2023-11-21T07:39:04;94202.88;;;5.98;100.00
12775;BME280;6451;42.630;23.382;2023-11-21T07:41:32;94120.25;;;5.55;100.00
12775;BME280;6451;42.630;23.382;2023-11-21T07:43:59;94190.78;;;6.13;100.00
12775;BME280;6451;42.630;23.382;2023-11-21T07:46:29;94135.88;;;5.79;100.00
12775;BME280;6451;42.630;23.382;2023-11-21T07:48:56;94195.91;;;6.06;100.00
12775;BME280;6451;42.630;23.382;2023-11-21T07:51:27;94180.63;;;6.19;100.00
12775;BME280;6451;42.630;23.382;2023-11-21T07:54:01;94124.63;;;5.95;100.00
12775;BME280;6451;42.630;23.382;2023-11-21T07:56:31;94018.38;;;5.28;100.00
12775;BME280;6451;42.630;23.382;2023-11-21T07:58:58;94051.69;;;5.62;100.00
12775;BME280;6451;42.630;23.382;2023-11-21T08:01:25;94183.84;;;6.50;100.00
12775;BME280;6451;42.630;23.382;2023-11-21T08:03:53;94170.84;;;6.44;100.00
12775;BME280;6451;42.630;23.382;2023-11-21T08:06:23;94171.13;;;6.21;100.00
12775;BME280;6451;42.630;23.382;2023-11-21T08:08:51;94172.75;;;6.52;100.00
12775;BME280;6451;42.630;23.382;2023-11-21T08:11:19;94171.38;;;6.66;100.00
12775;BME280;6451;42.630;23.382;2023-11-21T08:13:47;94142.03;;;6.35;100.00
12775;BME280;6451;42.630;23.382;2023-11-21T08:16:16;94149.91;;;6.79;100.00
12775;BME280;6451;42.630;23.382;2023-11-21T08:18:43;94161.91;;;7.11;100.00
12775;BME280;6451;42.630;23.382;2023-11-21T08:21:12;94091.88;;;6.52;100.00
12775;BME280;6451;42.630;23.382;2023-11-21T08:23:41;94176.97;;;7.12;100.00
12775;BME280;6451;42.630;23.382;2023-11-21T08:26:08;94166.19;;;7.12;100.00
12775;BME280;6451;42.630;23.382;2023-11-21T08:28:37;94152.31;;;7.01;100.00
12775;BME280;6451;42.630;23.382;2023-11-21T08:31:04;94175.50;;;7.44;100.00
12775;BME280;6451;42.630;23.382;2023-11-21T08:33:31;94178.75;;;7.49;100.00
12775;BME280;6451;42.630;23.382;2023-11-21T08:36:07;94171.59;;;7.74;100.00
12775;BME280;6451;42.630;23.382;2023-11-21T08:38:34;94172.81;;;7.77;100.00
12775;BME280;6451;42.630;23.382;2023-11-21T08:41:05;94168.28;;;8.02;100.00
12775;BME280;6451;42.630;23.382;2023-11-21T08:43:52;94169.59;;;7.96;100.00
12775;BME280;6451;42.630;23.382;2023-11-21T08:46:20;94161.63;;;7.99;100.00
12775;BME280;6451;42.630;23.382;2023-11-21T08:48:48;94124.75;;;7.70;100.00
12775;BME280;6451;42.630;23.382;2023-11-21T08:51:18;94169.59;;;7.96;100.00
12775;BME280;6451;42.630;23.382;2023-11-21T08:53:46;94168.88;;;8.07;100.00
12775;BME280;6451;42.630;23.382;2023-11-21T08:56:13;94164.03;;;8.25;100.00
12775;BME280;6451;42.630;23.382;2023-11-21T08:58:41;94146.81;;;8.18;100.00
12775;BME280;6451;42.630;23.382;2023-11-21T09:01:10;94087.63;;;7.67;100.00
12775;BME280;6451;42.630;23.382;2023-11-21T09:03:40;94169.34;;;8.34;100.00
12775;BME280;6451;42.630;23.382;2023-11-21T09:06:12;94075.63;;;8.26;100.00
12775;BME280;6451;42.630;23.382;2023-11-21T09:08:42;94106.53;;;8.49;100.00
12775;BME280;6451;42.630;23.382;2023-11-21T09:11:09;94136.63;;;8.48;100.00
12775;BME280;6451;42.630;23.382;2023-11-21T09:13:36;94129.97;;;8.57;100.00
12775;BME280;6451;42.630;23.382;2023-11-21T09:16:23;94084.06;;;8.00;100.00
12775;BME280;6451;42.630;23.382;2023-11-21T09:21:30;94079.44;;;8.13;100.00
12775;BME280;6451;42.630;23.382;2023-11-21T09:23:58;94106.81;;;8.11;100.00
12775;BME280;6451;42.630;23.382;2023-11-21T09:26:25;94097.50;;;8.33;100.00
12775;BME280;6451;42.630;23.382;2023-11-21T09:29:00;94065.94;;;8.00;100.00
12775;BME280;6451;42.630;23.382;2023-11-21T09:31:38;94021.56;;;7.77;100.00
12775;BME280;6451;42.630;23.382;2023-11-21T09:34:05;94016.19;;;8.01;100.00
12775;BME280;6451;42.630;23.382;2023-11-21T09:36:39;94063.03;;;8.30;100.00
12775;BME280;6451;42.630;23.382;2023-11-21T09:39:06;94047.06;;;8.37;100.00
12775;BME280;6451;42.630;23.382;2023-11-21T09:41:43;94055.25;;;8.16;100.00
12775;BME280;6451;42.630;23.382;2023-11-21T09:44:13;93945.16;;;7.76;100.00
12775;BME280;6451;42.630;23.382;2023-11-21T09:46:43;94046.34;;;7.79;100.00
12775;BME280;6451;42.630;23.382;2023-11-21T09:49:13;94029.72;;;8.14;100.00
12775;BME280;6451;42.630;23.382;2023-11-21T09:51:43;93989.06;;;7.98;100.00
12775;BME280;6451;42.630;23.382;2023-11-21T09:54:15;94017.09;;;8.42;100.00
12775;BME280;6451;42.630;23.382;2023-11-21T09:56:45;94023.97;;;8.40;100.00
12775;BME280;6451;42.630;23.382;2023-11-21T09:59:15;93998.38;;;8.49;100.00
12775;BME280;6451;42.630;23.382;2023-11-21T10:01:44;93904.72;;;8.17;100.00
12775;BME280;6451;42.630;23.382;2023-11-21T10:04:13;94000.69;;;8.75;100.00
12775;BME280;6451;42.630;23.382;2023-11-21T10:06:41;93989.78;;;9.00;100.00
12775;BME280;6451;42.630;23.382;2023-11-21T10:09:13;94002.38;;;9.36;100.00
12775;BME280;6451;42.630;23.382;2023-11-21T10:11:44;94003.22;;;9.84;100.00
12775;BME280;6451;42.630;23.382;2023-11-21T10:14:11;94002.59;;;9.59;100.00
12775;BME280;6451;42.630;23.382;2023-11-21T10:16:41;93971.38;;;9.65;100.00
12775;BME280;6451;42.630;23.382;2023-11-21T10:19:14;94000.69;;;9.91;100.00
12775;BME280;6451;42.630;23.382;2023-11-21T10:21:43;93990.63;;;9.91;100.00
12775;BME280;6451;42.630;23.382;2023-11-21T10:24:12;94001.38;;;10.35;100.00
12775;BME280;6451;42.630;23.382;2023-11-21T10:26:39;93948.72;;;10.20;100.00
12775;BME280;6451;42.630;23.382;2023-11-21T10:29:07;93960.63;;;10.16;100.00
12775;BME280;6451;42.630;23.382;2023-11-21T10:31:34;93975.72;;;10.48;100.00
12775;BME280;6451;42.630;23.382;2023-11-21T10:34:15;93886.56;;;9.96;100.00
12775;BME280;6451;42.630;23.382;2023-11-21T10:36:56;93975.59;;;10.80;100.00
12775;BME280;6451;42.630;23.382;2023-11-21T10:39:26;93974.03;;;10.79;100.00
12775;BME280;6451;42.630;23.382;2023-11-21T10:41:56;93970.31;;;10.68;100.00
12775;BME280;6451;42.630;23.382;2023-11-21T10:44:46;93741.59;;;9.32;100.00
12775;BME280;6451;42.630;23.382;2023-11-21T10:47:14;93958.09;;;11.35;100.00
12775;BME280;6451;42.630;23.382;2023-11-21T10:49:43;93970.59;;;11.40;100.00
12775;BME280;6451;42.630;23.382;2023-11-21T10:52:10;93906.78;;;10.69;100.00
12775;BME280;6451;42.630;23.382;2023-11-21T10:54:43;93938.59;;;10.52;100.00
12775;BME280;6451;42.630;23.382;2023-11-21T10:57:13;93957.13;;;10.85;100.00
12775;BME280;6451;42.630;23.382;2023-11-21T10:59:46;93958.19;;;11.00;100.00
12775;BME280;6451;42.630;23.382;2023-11-21T11:02:21;93951.09;;;11.15;100.00
12775;BME280;6451;42.630;23.382;2023-11-21T11:04:52;93945.19;;;11.09;100.00
12775;BME280;6451;42.630;23.382;2023-11-21T11:07:21;93948.38;;;10.96;100.00
12775;BME280;6451;42.630;23.382;2023-11-21T11:09:53;93926.03;;;10.64;100.00
12775;BME280;6451;42.630;23.382;2023-11-21T11:12:20;93938.75;;;10.98;100.00
12775;BME280;6451;42.630;23.382;2023-11-21T11:14:48;93944.31;;;11.25;100.00
12775;BME280;6451;42.630;23.382;2023-11-21T11:17:17;93937.84;;;11.33;100.00
12775;BME280;6451;42.630;23.382;2023-11-21T11:19:46;93927.00;;;11.33;100.00
12775;BME280;6451;42.630;23.382;2023-11-21T11:22:28;93923.50;;;11.32;100.00
12775;BME280;6451;42.630;23.382;2023-11-21T11:25:18;93914.56;;;11.32;100.00
12775;BME280;6451;42.630;23.382;2023-11-21T11:27:54;93763.50;;;9.97;100.00
12775;BME280;6451;42.630;23.382;2023-11-21T11:30:39;93900.03;;;11.01;100.00
12775;BME280;6451;42.630;23.382;2023-11-21T11:36:01;93882.47;;;10.95;100.00
12775;BME280;6451;42.630;23.382;2023-11-21T11:38:33;93890.63;;;11.18;100.00
12775;BME280;6451;42.630;23.382;2023-11-21T11:41:02;93881.44;;;11.03;100.00
12775;BME280;6451;42.630;23.382;2023-11-21T11:43:29;93882.03;;;11.12;100.00
12775;BME280;6451;42.630;23.382;2023-11-21T11:45:58;93874.97;;;10.50;100.00
12775;BME280;6451;42.630;23.382;2023-11-21T11:48:29;93895.09;;;10.88;100.00
12775;BME280;6451;42.630;23.382;2023-11-21T11:51:03;93908.88;;;11.18;100.00
12775;BME280;6451;42.630;23.382;2023-11-21T11:53:37;93891.25;;;10.89;100.00
12775;BME280;6451;42.630;23.382;2023-11-21T11:56:30;93904.19;;;10.76;100.00
12775;BME280;6451;42.630;23.382;2023-11-21T11:59:03;93906.09;;;10.95;100.00
12775;BME280;6451;42.630;23.382;2023-11-21T12:01:32;93884.56;;;10.82;100.00
12775;BME280;6451;42.630;23.382;2023-11-21T12:04:24;93892.06;;;10.70;100.00
12775;BME280;6451;42.630;23.382;2023-11-21T12:06:59;93888.84;;;10.45;100.00
12775;BME280;6451;42.630;23.382;2023-11-21T12:09:31;93844.44;;;9.98;100.00
12775;BME280;6451;42.630;23.382;2023-11-21T12:11:58;93872.72;;;10.17;100.00
12775;BME280;6451;42.630;23.382;2023-11-21T12:14:25;93875.63;;;10.08;100.00
12775;BME280;6451;42.630;23.382;2023-11-21T12:16:53;93890.13;;;10.16;100.00
12775;BME280;6451;42.630;23.382;2023-11-21T12:19:20;93903.81;;;10.39;100.00
12775;BME280;6451;42.630;23.382;2023-11-21T12:21:48;93869.28;;;10.00;100.00
12775;BME280;6451;42.630;23.382;2023-11-21T12:24:16;93851.44;;;9.99;100.00
12775;BME280;6451;42.630;23.382;2023-11-21T12:26:44;93898.19;;;10.12;100.00
12775;BME280;6451;42.630;23.382;2023-11-21T12:29:11;93880.69;;;10.25;100.00
12775;BME280;6451;42.630;23.382;2023-11-21T12:31:39;93873.44;;;10.14;100.00
12775;BME280;6451;42.630;23.382;2023-11-21T12:34:06;93906.47;;;10.19;100.00
12775;BME280;6451;42.630;23.382;2023-11-21T12:36:37;93886.47;;;10.24;100.00
12775;BME280;6451;42.630;23.382;2023-11-21T12:39:04;93813.06;;;9.62;100.00
12775;BME280;6451;42.630;23.382;2023-11-21T12:41:31;93910.28;;;9.99;100.00
12775;BME280;6451;42.630;23.382;2023-11-21T12:44:00;93876.38;;;9.89;100.00
12775;BME280;6451;42.630;23.382;2023-11-21T12:46:26;93889.44;;;10.03;100.00
12775;BME280;6451;42.630;23.382;2023-11-21T12:48:57;93894.03;;;9.99;100.00
12775;BME280;6451;42.630;23.382;2023-11-21T12:51:24;93903.78;;;10.03;100.00
12775;BME280;6451;42.630;23.382;2023-11-21T12:53:51;93892.97;;;9.88;100.00
12775;BME280;6451;42.630;23.382;2023-11-21T12:56:21;93835.13;;;9.45;100.00
12775;BME280;6451;42.630;23.382;2023-11-21T12:58:50;93839.56;;;9.53;100.00
12775;BME280;6451;42.630;23.382;2023-11-21T13:01:19;93864.78;;;9.57;100.00
12775;BME280;6451;42.630;23.382;2023-11-21T13:03:49;93882.09;;;9.53;100.00
12775;BME280;6451;42.630;23.382;2023-11-21T13:06:19;93863.00;;;9.81;100.00
12775;BME280;6451;42.630;23.382;2023-11-21T13:11:36;93841.59;;;9.91;100.00
12775;BME280;6451;42.630;23.382;2023-11-21T13:14:06;93812.91;;;9.90;100.00
12775;BME280;6451;42.630;23.382;2023-11-21T13:16:41;93853.22;;;10.11;100.00
12775;BME280;6451;42.630;23.382;2023-11-21T13:19:11;93843.50;;;9.91;100.00